Юган

Карта отелей и гостиниц, располагающихся рядом с аэропортом Юган :

Юган Ханты-Мансийский автономный округ - Югра 60° 52' 43.68" N, 73° 41' 37.3812" E
Код аэродрома ИКАО
USRY
Код аэродрома RU
УСРЫ
Координаты
N60.87880° E073.69372°
Превышение над уровнем моря
44
Основная полоса
14/32
Курс магнитный
135,5/315,5
Длина основной ВПП
20
Ширина основной ВПП
20
Покрытие основной ВПП
Твёрдое
Освещение ВПП
Нет
Тип: 
Вертодром
Класс аэродрома: 
Принадлежность: 
ГА
Статус: 
Действующий
Сайт: 
E-mail аэродрома: 
Страна: 
Россия
Регион: 
Ханты-Мансийский автономный округ - Югра
Город: 
Дополнительная информация: 
Оператор: нет данных.

Найти трансфер

С помощью этой формы Вы можете найти трансфер из аэропорта Юган в город, аэропорт или вокзал:

Карта места

Javascript is required to view this map.

Погода в аэропортах:

Авиационная погода в Игнатьево

Регион: 
Погода METAR: 
UHBB 281300Z 33002MPS 4200 -SHSN BKN033CB M09/M10 Q1022 R36/821060 NOSIG RMK QFE749/0998
Время наблюдения
2021-11-28T13:00:00Z
Температура C
-9.0
Точка росы
-10.0
Направление ветра
330
Скорость ветра (узлы)
4
Метео видимость
2.61
Явления погоды
-SHSN
Условия полета
IFR
Аэропорт подробнее: 

Авиационная погода в Ровно

Регион: 
Погода METAR: 
UKLR 281400Z VRB01MPS 6000 -RA OVC026 04/04 Q0997 NOSIG
Время наблюдения
2021-11-28T14:00:00Z
Температура C
4.0
Точка росы
4.0
Направление ветра
0
Скорость ветра (узлы)
2
Метео видимость
3.73
Явления погоды
-RA
Условия полета
MVFR
Аэропорт подробнее: 

Авиационная погода в Волгограде

Регион: 
Погода METAR: 
URWW 281300Z 13004MPS 4000 BR BKN002 06/06 Q1013 R06/290060 TEMPO 0300 FG RMK QBB060 OBST OBSC
Время наблюдения
2021-11-28T13:00:00Z
Температура C
6.0
Точка росы
6.0
Направление ветра
130
Скорость ветра (узлы)
8
Метео видимость
2.49
Явления погоды
BR
Условия полета
LIFR
Аэропорт подробнее: 

Авиационная погода в Алматы

Регион: 
Погода METAR: 
UAAA 281400Z 20002MPS 1200 R05L/P2000 R05R/P2000 BR FU FEW200 M03/M06 Q1026 NOSIG
Время наблюдения
2021-11-28T14:00:00Z
Температура C
-3.0
Точка росы
-6.0
Направление ветра
200
Скорость ветра (узлы)
4
Метео видимость
0.75
Явления погоды
FU BR
Условия полета
LIFR
Аэропорт подробнее: